Latest Weather Observations for Yamba

IDN60801

Issued at 3:05 pm EDT Wednesday 28 January 2015 (issued every 30 minutes, with the page automatically refreshed every 10 minutes)

About weather observations | Map of weather stations | Latest weather observations for NSW | Other Formats
Station Details ID: 058012 Name: YAMBA PILOT STATION Lat: -29.43 Lon: 153.36 Height: 27.4 m
Data from the previous 72 hours. | See also: Recent months at Yamba
Date/Time
EDT
Temp
°C
App
Temp
°C
Dew
Point
Rel
Hum
%
Delta-T
°C
Wind Press
QNH
hPa
Press
MSL
hPa
Rain
since 9 am
mm
Dir
 
Spd
km/h
Gust
km/h
Spd
kts
Gust
kts
28/03:00pm 20.5 20.7 20.5 100 0.0 S 20 37 11 20 1007.8 1007.7 1.4
28/02:30pm 20.5 20.7 20.5 100 0.0 S 20 30 11 16 1007.8 - 1.2
28/02:04pm 21.3 20.3 21.3 100 0.0 S 28 46 15 25 1007.8 - -
28/02:00pm 21.5 21.3 21.3 99 0.1 S 24 46 13 25 1007.8 - 0.2
28/01:30pm 22.3 22.6 21.5 95 0.5 S 22 39 12 21 1007.9 - 0.0
28/01:00pm 22.1 22.7 21.1 94 0.7 S 19 32 10 17 1007.8 - 0.0
28/12:30pm 22.2 22.6 20.7 91 1.0 S 19 30 10 16 1007.9 - 0.0
28/12:00pm 21.9 22.7 20.7 93 0.8 S 17 24 9 13 1008.0 1007.9 0.0
28/11:30am 21.2 23.7 21.0 99 0.1 SSW 9 22 5 12 1008.1 - 0.0
28/11:00am 21.0 23.0 20.7 98 0.2 SSW 11 17 6 9 1008.0 - 0.0
28/10:30am 20.5 22.7 20.5 100 0.0 SW 9 13 5 7 1007.9 - 0.0
28/10:00am 20.1 22.5 20.1 100 0.0 SW 7 17 4 9 1007.7 - 0.0
28/09:30am 19.8 21.7 19.8 100 0.0 SSW 9 17 5 9 1007.5 - 0.0
28/09:00am 19.1 20.3 19.1 100 0.0 SW 11 17 6 9 1007.4 1007.2 15.0
28/08:30am 18.6 20.0 18.6 100 0.0 SW 9 17 5 9 1007.5 - 15.0
28/08:00am 18.3 19.5 18.3 100 0.0 SW 9 17 5 9 1007.4 - 15.0
28/07:30am 17.9 18.6 17.9 100 0.0 SW 11 19 6 10 1007.3 - 15.0
28/07:00am 17.8 18.1 17.8 100 0.0 SW 13 24 7 13 1007.0 - 15.0
28/06:30am 17.5 18.0 17.5 100 0.0 WSW 11 17 6 9 1006.6 - 15.0
28/06:00am 17.8 18.8 17.8 100 0.0 SW 9 15 5 8 1006.1 1006.0 14.8
28/05:30am 17.8 18.4 17.8 100 0.0 SW 11 17 6 9 1006.1 - 14.8
28/05:00am 17.5 17.6 17.5 100 0.0 SW 13 20 7 11 1006.1 - 14.2
28/04:30am 17.6 18.2 17.6 100 0.0 WSW 11 19 6 10 1006.7 - 13.8
28/04:00am 17.5 18.0 17.5 100 0.0 SW 11 17 6 9 1006.6 - 13.2
28/03:30am 17.5 18.4 17.5 100 0.0 SW 9 17 5 9 1006.9 - 12.6
28/03:00am 17.5 18.0 17.5 100 0.0 SW 11 20 6 11 1007.3 1007.2 12.0
28/02:30am 17.6 18.5 17.6 100 0.0 SW 9 17 5 9 1007.7 - 11.8
28/02:00am 17.7 18.3 17.7 100 0.0 WSW 11 22 6 12 1008.3 - 11.4
28/01:30am 18.0 18.7 18.0 100 0.0 WSW 11 20 6 11 1009.0 - 11.0
28/01:00am 18.3 18.8 18.3 100 0.0 SW 13 20 7 11 1009.1 - 10.2
28/12:30am 18.8 18.7 18.8 100 0.0 SSW 17 30 9 16 1009.6 - 9.4
28/12:00am 19.1 18.2 19.1 100 0.0 SSW 22 37 12 20 1009.4 1009.3 8.4
 
Date/Time
EDT
Temp
°C
App
Temp
°C
Dew
Point
Rel
Hum
%
Delta-T
°C
Wind Press
QNH
hPa
Press
MSL
hPa
Rain
since 9 am
mm
Dir
 
Spd
km/h
Gust
km/h
Spd
kts
Gust
kts
27/11:30pm 19.6 18.9 19.6 100 0.0 S 22 32 12 17 1009.6 - 6.8
27/11:00pm 21.0 21.3 20.3 96 0.5 S 19 28 10 15 1009.9 - 3.4
27/10:30pm 22.1 21.0 20.2 89 1.2 SSE 26 39 14 21 1009.4 - 3.0
27/10:18pm 22.1 20.3 20.4 90 1.1 SSE 30 48 16 26 1009.3 - 3.0
27/10:17pm 22.1 20.3 20.4 90 1.1 SSE 30 48 16 26 1009.3 - -
27/10:00pm 21.6 19.3 19.3 87 1.5 SSE 30 43 16 23 1009.3 - 3.0
27/09:30pm 21.5 19.7 20.3 93 0.8 SSE 30 48 16 26 1008.8 - -
27/09:23pm 21.5 19.7 20.3 93 0.8 SSE 30 48 16 26 1008.7 - 2.4
27/09:22pm 21.5 19.7 20.3 93 0.8 SSE 30 48 16 26 1008.7 - -
27/09:00pm 22.4 20.0 19.9 86 1.6 SE 32 39 17 21 1008.8 1008.7 0.6
27/08:30pm 22.8 20.8 20.0 84 1.8 SE 30 41 16 22 1008.8 - 0.0
27/08:00pm 24.2 22.5 19.9 77 2.8 SE 28 37 15 20 1008.2 - 0.0
27/07:30pm 24.2 21.5 19.7 76 2.9 SE 33 43 18 23 1007.6 - 0.0
27/07:00pm 24.1 21.2 20.0 78 2.7 SE 35 43 19 23 1007.2 - 0.0
27/06:30pm 24.2 21.9 20.1 78 2.7 ESE 32 43 17 23 1006.8 - 0.0
27/06:00pm 24.4 22.3 20.5 79 2.5 ESE 32 44 17 24 1006.4 1006.3 0.0
27/05:30pm 24.6 23.4 20.9 80 2.4 ESE 28 41 15 22 1006.4 - 0.0
27/05:00pm 24.5 23.4 20.2 77 2.8 ESE 26 39 14 21 1006.6 - 0.0
27/04:30pm 24.8 24.3 21.5 82 2.2 ESE 26 39 14 21 1006.6 - 0.0
27/04:00pm 25.1 25.2 21.8 82 2.2 ESE 24 35 13 19 1007.2 - 0.0
27/03:30pm 25.1 24.3 21.6 81 2.3 ESE 28 35 15 19 1007.5 - 0.0
27/03:00pm 26.1 26.5 22.4 80 2.5 ESE 24 35 13 19 1007.7 1007.6 0.0
27/02:30pm 26.2 27.6 22.5 80 2.5 ESE 19 30 10 16 1008.0 - 0.0
27/02:00pm 25.2 26.3 22.3 84 1.9 ESE 20 28 11 15 1008.4 - 0.0
27/01:30pm 24.9 24.7 22.0 84 1.9 ESE 26 33 14 18 1008.9 - 0.0
27/01:00pm 25.2 25.6 21.7 81 2.3 ESE 22 32 12 17 1009.1 - 0.0
27/12:30pm 25.3 26.0 22.2 83 2.1 ESE 22 32 12 17 1009.2 - 0.0
27/12:00pm 25.2 25.9 22.3 84 1.9 E 22 32 12 17 1009.4 1009.3 0.0
27/11:30am 25.4 25.0 21.7 80 2.5 E 26 35 14 19 1009.3 - 0.0
27/11:00am 25.3 25.2 22.2 83 2.1 E 26 33 14 18 1009.2 - 0.0
27/10:30am 25.7 26.9 22.2 81 2.3 E 19 30 10 16 1009.4 - 0.0
27/10:00am 25.8 26.7 22.7 83 2.1 E 22 30 12 16 1009.2 - 0.0
27/09:30am 26.5 28.9 23.6 84 2.0 E 17 22 9 12 1009.2 - 0.0
27/09:00am 25.6 27.5 23.8 90 1.2 E 20 26 11 14 1009.2 1009.1 12.0
27/08:30am 25.2 27.6 23.6 91 1.1 E 17 24 9 13 1009.2 - 12.0
27/08:00am 25.1 27.2 23.7 92 1.0 ESE 19 28 10 15 1008.8 - 12.0
27/07:30am 24.9 27.2 23.5 92 1.0 ESE 17 22 9 12 1008.7 - 12.0
27/07:00am 24.8 26.8 23.6 93 0.8 ESE 19 26 10 14 1008.6 - 12.0
27/06:30am 24.5 26.7 24.0 97 0.3 ESE 19 26 10 14 1008.3 - 12.0
27/06:00am 24.2 26.4 24.2 100 0.0 SE 20 26 11 14 1008.1 1008.0 12.0
27/05:30am 24.4 26.6 24.2 99 0.1 ESE 20 32 11 17 1007.7 - 12.0
27/05:00am 24.0 26.9 23.8 99 0.1 ESE 15 22 8 12 1007.6 - 12.0
27/04:30am 23.7 26.9 23.7 100 0.0 E 13 20 7 11 1007.9 - 12.0
27/04:00am 23.1 28.0 23.1 100 0.0 ESE 2 9 1 5 1008.1 - 12.0
27/03:30am 22.6 26.5 22.6 100 0.0 NNE 6 9 3 5 1008.2 - 11.8
27/03:00am 22.2 24.6 22.2 100 0.0 E 13 20 7 11 1008.4 1008.3 3.4
27/02:30am 21.9 23.3 21.9 100 0.0 E 17 28 9 15 1008.6 - 0.4
27/02:06am 22.3 21.1 22.3 100 0.0 ESE 32 50 17 27 1008.5 - 0.4
27/02:05am 22.3 21.1 22.3 100 0.0 ESE 32 50 17 27 1008.5 - -
27/02:00am 22.6 21.4 22.6 100 0.0 ESE 33 48 18 26 1008.5 - 0.4
27/01:39am 23.1 19.5 22.8 98 0.2 SE 46 57 25 31 1008.8 - 0.4
27/01:30am 24.4 23.9 23.5 95 0.6 SE 32 41 17 22 1009.0 - 0.4
27/01:29am 24.8 25.0 24.1 96 0.5 SE 30 39 16 21 1009.0 - -
27/01:00am 25.2 29.7 24.0 93 0.8 E 7 13 4 7 1009.3 - 0.4
27/12:30am 25.3 29.2 24.3 94 0.7 E 11 15 6 8 1009.3 - 0.4
27/12:00am 25.5 29.6 24.5 94 0.7 E 11 13 6 7 1009.2 1009.1 0.4
 
Date/Time
EDT
Temp
°C
App
Temp
°C
Dew
Point
Rel
Hum
%
Delta-T
°C
Wind Press
QNH
hPa
Press
MSL
hPa
Rain
since 9 am
mm
Dir
 
Spd
km/h
Gust
km/h
Spd
kts
Gust
kts
26/11:30pm 25.7 29.3 24.3 92 1.0 E 13 19 7 10 1009.6 - 0.4
26/11:00pm 25.8 27.6 24.2 91 1.1 E 22 28 12 15 1009.6 - 0.4
26/10:30pm 25.7 29.0 24.5 93 0.8 E 15 20 8 11 1009.3 - 0.4
26/10:00pm 25.5 29.1 24.3 93 0.8 E 13 20 7 11 1009.6 - 0.4
26/09:30pm 25.4 28.3 24.5 95 0.6 E 17 24 9 13 1009.8 - 0.4
26/09:00pm 25.6 28.1 24.7 95 0.6 ESE 20 28 11 15 1009.5 1009.3 0.2
26/08:30pm 25.3 28.1 25.0 98 0.2 SE 19 24 10 13 1009.3 - 0.0
26/08:00pm 25.6 28.4 24.9 96 0.5 SE 19 24 10 13 1009.5 - 0.0
26/07:30pm 25.7 29.9 24.8 95 0.6 ESE 11 17 6 9 1009.4 - 0.0
26/07:00pm 25.5 29.2 24.6 95 0.6 ESE 13 17 7 9 1008.7 - 0.0
26/06:30pm 25.6 28.1 24.7 95 0.6 ESE 20 28 11 15 1007.9 - 0.0
26/06:00pm 25.8 29.7 24.8 94 0.7 ESE 13 19 7 10 1008.4 1008.3 0.0
26/05:30pm 26.0 29.1 24.8 93 0.8 ESE 17 20 9 11 1008.2 - 0.0
26/05:00pm 26.1 28.7 24.9 93 0.8 ESE 20 28 11 15 1007.5 - 0.0
26/04:30pm 26.2 27.6 24.8 92 1.0 ESE 26 32 14 17 1007.5 - 0.0
26/04:00pm 26.4 27.8 24.8 91 1.1 ESE 26 32 14 17 1007.9 - 0.0
26/03:30pm 26.6 28.9 25.0 91 1.1 ESE 22 28 12 15 1007.8 - 0.0
26/03:00pm 27.4 30.3 25.4 89 1.4 ESE 20 28 11 15 1007.7 1007.6 0.0
26/02:30pm 28.3 31.9 26.1 88 1.6 ESE 19 24 10 13 1007.6 - 0.0
26/02:00pm 28.2 31.6 26.2 89 1.4 ESE 20 28 11 15 1007.6 - 0.0
26/01:30pm 28.3 31.2 26.5 90 1.3 ESE 24 30 13 16 1007.7 - 0.0
26/01:00pm 28.2 31.5 26.6 91 1.1 SE 22 28 12 15 1008.3 - 0.0
26/12:30pm 27.8 31.5 26.6 93 0.9 SE 20 24 11 13 1008.5 - 0.0
26/12:00pm 28.1 31.3 26.5 91 1.1 SE 22 26 12 14 1008.8 1008.7 0.0
26/11:30am 28.4 32.3 26.6 90 1.3 SSE 19 26 10 14 1008.7 - 0.0
26/11:00am 27.8 31.7 26.6 93 0.9 SSE 19 26 10 14 1008.5 - 0.0
26/10:30am 28.1 32.4 26.7 92 1.0 SE 17 22 9 12 1008.2 - 0.0
26/10:00am 27.8 32.1 26.7 94 0.8 SSE 17 24 9 13 1008.4 - 0.0
26/09:30am 26.9 31.7 26.2 96 0.5 S 13 19 7 10 1008.2 - 0.0
26/09:00am 25.6 29.3 25.1 97 0.3 S 15 20 8 11 1008.0 1007.9 7.8
26/08:30am 25.6 29.9 24.9 96 0.5 S 11 20 6 11 1007.9 - 7.8
26/08:00am 25.0 29.6 24.7 98 0.2 SSE 9 15 5 8 1007.9 - 7.8
26/07:30am 24.0 27.8 24.0 100 0.0 S 11 13 6 7 1007.6 - 7.8
26/07:00am 23.4 26.8 23.4 100 0.0 S 11 13 6 7 1007.3 - 7.8
26/06:30am 23.1 27.1 23.1 100 0.0 WNW 7 9 4 5 1006.8 - 7.8
26/06:00am 23.1 26.7 23.1 100 0.0 WNW 9 13 5 7 1006.2 1006.1 7.8
26/05:30am 22.9 26.4 22.9 100 0.0 SW 9 15 5 8 1005.8 - 7.8
26/05:00am 22.9 26.0 22.9 100 0.0 WSW 11 15 6 8 1005.5 - 7.8
26/04:30am 23.0 26.2 23.0 100 0.0 W 11 15 6 8 1005.4 - 7.8
26/04:00am 22.8 25.9 22.8 100 0.0 W 11 17 6 9 1005.2 - 7.8
26/03:30am 22.8 25.5 22.8 100 0.0 WSW 13 17 7 9 1005.2 - 7.8
26/03:00am 22.9 25.6 22.9 100 0.0 W 13 19 7 10 1005.2 1005.1 7.8
26/02:30am 22.9 25.9 22.7 99 0.1 W 11 15 6 8 1005.4 - 7.8
26/02:00am 22.9 25.5 22.7 99 0.1 W 13 19 7 10 1005.5 - 7.8
26/01:30am 23.0 25.6 22.7 98 0.2 W 13 17 7 9 1005.8 - 7.8
26/01:00am 23.2 25.8 22.7 97 0.3 W 13 19 7 10 1005.8 - 7.8
26/12:30am 23.4 26.4 22.6 95 0.5 SW 11 17 6 9 1005.9 - 7.8
26/12:00am 23.6 26.3 22.8 95 0.5 SW 13 17 7 9 1005.9 1005.8 7.8
 
Date/Time
EDT
Temp
°C
App
Temp
°C
Dew
Point
Rel
Hum
%
Delta-T
°C
Wind Press
QNH
hPa
Press
MSL
hPa
Rain
since 9 am
mm
Dir
 
Spd
km/h
Gust
km/h
Spd
kts
Gust
kts
25/11:30pm 24.0 27.6 23.7 98 0.2 WSW 11 17 6 9 1006.1 - 7.8
25/11:00pm 24.2 27.4 23.7 97 0.3 WSW 13 17 7 9 1006.4 - 7.8
25/10:30pm 24.5 27.6 23.5 94 0.7 WSW 13 17 7 9 1006.4 - 7.8
25/10:00pm 25.1 29.2 23.9 93 0.8 WSW 9 15 5 8 1006.1 - 7.8
25/09:30pm 25.2 29.1 24.2 94 0.7 WSW 11 17 6 9 1005.9 - 7.8
25/09:00pm 25.2 30.1 25.2 100 0.0 NNW 9 15 5 8 1005.3 1005.1 7.8
25/08:30pm 25.2 28.8 25.0 99 0.1 WNW 15 20 8 11 1005.3 - 7.8
25/08:00pm 26.3 32.3 26.3 100 0.0 W 7 11 4 6 1005.3 - 7.6
25/07:30pm 26.7 32.2 26.2 97 0.4 S 9 15 5 8 1004.7 - 7.6
25/07:00pm 26.9 33.3 26.6 98 0.2 N 6 9 3 5 1003.6 - 7.6
25/06:30pm 26.5 32.1 25.5 94 0.7 NE 6 9 3 5 1003.0 - 7.6
25/06:00pm 27.4 34.1 26.5 95 0.6 W 4 9 2 5 1003.8 1003.7 7.6
25/05:30pm 25.3 29.5 24.1 93 0.8 W 9 15 5 8 1003.9 - 7.6
25/05:00pm 28.1 31.2 25.7 87 1.7 S 20 32 11 17 1004.0 - 0.0
25/04:30pm 28.9 33.5 25.9 84 2.1 NNE 13 19 7 10 1002.6 - 0.0
25/04:00pm 31.7 37.8 27.6 79 3.0 N 11 20 6 11 1002.6 - 0.0
25/03:30pm 30.9 36.8 26.8 79 3.0 N 9 15 5 8 1002.7 - 0.0

Other Formats:

Comma delimited format used in spreadsheet applications
http://www.bom.gov.au/fwo/IDN60801/IDN60801.94589.axf

JavaScript Object Notation format (JSON) in row-major order
http://www.bom.gov.au/fwo/IDN60801/IDN60801.94589.json